Time;durP1;ratioP1;P1;durP2;ratioP2;P2;SDS_P1;SDS_P2;PMS_P1;PMS_P2;Temp;Humidity;BMP_temperature;BMP_pressure;BME280_temperature;BME280_humidity;BME280_pressure;Samples;Min_cycle;Max_cycle;Signal;HPM_P1;HPM_P2
2023/07/28 00:00:51;;;;;;;4.30;2.70;;;;;;;;;;108177;1264;40829;-31
2023/07/28 00:03:38;;;;;;;4.30;3.00;;;;;;;;;;108231;1258;42589;-31
2023/07/28 00:06:12;;;;;;;5.00;2.90;;;;;;;;;;108232;1258;41720;-31
2023/07/28 00:08:48;;;;;;;4.90;3.10;;;;;;;;;;108297;1257;39397;-31
2023/07/28 00:11:23;;;;;;;4.70;2.90;;;;;;;;;;108295;1269;40602;-31
2023/07/28 00:13:57;;;;;;;4.60;2.80;;;;;;;;;;108294;1264;42801;-31
2023/07/28 00:16:32;;;;;;;4.50;2.80;;;;;;;;;;108198;1260;42490;-31
2023/07/28 00:19:07;;;;;;;4.30;2.70;;;;;;;;;;108213;1259;39078;-31
2023/07/28 00:21:41;;;;;;;4.40;2.90;;;;;;;;;;108216;1258;40459;-31
2023/07/28 00:24:15;;;;;;;4.80;2.80;;;;;;;;;;108166;1257;42737;-31
2023/07/28 00:26:49;;;;;;;4.50;2.90;;;;;;;;;;108284;1260;41252;-31
2023/07/28 00:29:23;;;;;;;4.40;2.70;;;;;;;;;;108301;1269;39073;-31
2023/07/28 00:31:57;;;;;;;4.70;3.10;;;;;;;;;;108316;1269;41885;-31
2023/07/28 00:34:31;;;;;;;4.30;2.80;;;;;;;;;;108297;1262;42369;-31
2023/07/28 00:37:08;;;;;;;4.30;2.90;;;;;;;;;;108144;1269;42846;-31
2023/07/28 00:39:41;;;;;;;4.40;2.90;;;;;;;;;;108229;1260;39068;-31
2023/07/28 00:42:15;;;;;;;4.20;2.90;;;;;;;;;;108201;1260;40683;-31
2023/07/28 00:44:49;;;;;;;4.70;3.00;;;;;;;;;;108218;1257;42643;-31
2023/07/28 00:47:23;;;;;;;4.70;3.00;;;;;;;;;;108290;1260;41908;-31
2023/07/28 00:49:58;;;;;;;4.60;3.10;;;;;;;;;;108293;1256;39507;-31
2023/07/28 00:52:32;;;;;;;4.80;2.90;;;;;;;;;;108308;1271;40406;-31
2023/07/28 00:55:08;;;;;;;4.30;2.90;;;;;;;;;;108329;1256;42765;-31
2023/07/28 00:57:43;;;;;;;4.70;2.90;;;;;;;;;;108327;1258;48683;-31
2023/07/28 01:00:18;;;;;;;5.00;3.00;;;;;;;;;;108208;1268;39186;-31
2023/07/28 01:02:52;;;;;;;4.70;2.80;;;;;;;;;;108192;1269;40468;-31
2023/07/28 01:05:33;;;;;;;4.40;2.90;;;;;;;;;;108217;1268;42864;-31
2023/07/28 01:08:28;;;;;;;4.50;2.80;;;;;;;;;;108386;1257;47234;-31
2023/07/28 01:11:03;;;;;;;4.90;3.00;;;;;;;;;;108298;1270;40386;-31
2023/07/28 01:13:37;;;;;;;4.40;3.00;;;;;;;;;;108291;1270;42199;-31
2023/07/28 01:16:11;;;;;;;4.70;3.20;;;;;;;;;;108238;1256;42625;-31
2023/07/28 01:18:46;;;;;;;4.70;3.20;;;;;;;;;;108200;1272;41866;-31
2023/07/28 01:21:26;;;;;;;4.50;3.00;;;;;;;;;;108218;1268;39482;-31
2023/07/28 01:24:11;;;;;;;4.40;2.90;;;;;;;;;;107593;1257;891928;-31
2023/07/28 01:26:46;;;;;;;5.00;3.00;;;;;;;;;;108140;1272;42186;-31
2023/07/28 01:29:21;;;;;;;5.00;3.00;;;;;;;;;;108180;1261;41596;-31
2023/07/28 01:31:55;;;;;;;4.40;2.80;;;;;;;;;;108211;1270;39082;-31
2023/07/28 01:34:29;;;;;;;4.40;2.90;;;;;;;;;;108228;1259;40665;-31
2023/07/28 01:37:03;;;;;;;4.60;3.20;;;;;;;;;;108166;1257;42607;-31
2023/07/28 01:39:40;;;;;;;4.50;3.00;;;;;;;;;;108348;1256;41428;-31
2023/07/28 01:42:14;;;;;;;4.70;3.00;;;;;;;;;;108300;1271;39414;-31
2023/07/28 01:44:48;;;;;;;4.90;3.00;;;;;;;;;;108287;1261;40413;-31
2023/07/28 01:47:22;;;;;;;5.00;3.20;;;;;;;;;;108237;1257;42905;-31
2023/07/28 01:49:57;;;;;;;4.70;2.90;;;;;;;;;;108189;1260;41622;-31
2023/07/28 01:52:31;;;;;;;5.00;2.90;;;;;;;;;;108227;1258;39245;-31
2023/07/28 01:55:07;;;;;;;4.70;2.70;;;;;;;;;;107591;1272;891458;-31
2023/07/28 01:57:57;;;;;;;4.60;3.10;;;;;;;;;;108205;1258;43603;-31
2023/07/28 02:00:33;;;;;;;4.50;2.80;;;;;;;;;;108260;1257;41411;-31
2023/07/28 02:03:07;;;;;;;4.50;3.10;;;;;;;;;;108205;1261;39027;-31
2023/07/28 02:05:45;;;;;;;5.20;2.90;;;;;;;;;;108235;1265;40661;-31
2023/07/28 02:08:20;;;;;;;5.70;3.10;;;;;;;;;;108212;1260;42497;-31
2023/07/28 02:10:55;;;;;;;4.70;3.10;;;;;;;;;;108325;1272;41454;-31
2023/07/28 02:13:30;;;;;;;4.30;2.90;;;;;;;;;;108295;1260;39206;-31
2023/07/28 02:16:05;;;;;;;4.90;3.30;;;;;;;;;;108324;1257;40604;-31
2023/07/28 02:18:40;;;;;;;4.90;3.10;;;;;;;;;;108193;1257;42175;-31
2023/07/28 02:21:14;;;;;;;4.80;3.10;;;;;;;;;;108205;1261;41288;-31
2023/07/28 02:23:50;;;;;;;4.80;2.90;;;;;;;;;;108231;1257;39641;-31
2023/07/28 02:26:24;;;;;;;4.30;3.00;;;;;;;;;;108277;1257;40469;-31
2023/07/28 02:28:58;;;;;;;4.70;3.00;;;;;;;;;;108232;1257;42367;-31
2023/07/28 02:31:33;;;;;;;4.20;2.80;;;;;;;;;;108291;1269;41410;-31
2023/07/28 02:34:07;;;;;;;4.30;3.00;;;;;;;;;;108306;1257;39366;-31
2023/07/28 02:36:41;;;;;;;4.30;2.90;;;;;;;;;;108297;1257;42067;-31
2023/07/28 02:39:16;;;;;;;4.90;3.00;;;;;;;;;;108214;1258;43900;-31
2023/07/28 02:41:50;;;;;;;4.80;2.90;;;;;;;;;;108282;1272;41487;-31
2023/07/28 02:44:24;;;;;;;4.70;3.30;;;;;;;;;;108271;1272;39558;-31
2023/07/28 02:46:58;;;;;;;4.40;2.90;;;;;;;;;;108222;1258;40565;-31
2023/07/28 02:49:32;;;;;;;4.80;3.10;;;;;;;;;;108237;1260;42234;-31
2023/07/28 02:52:09;;;;;;;4.60;3.10;;;;;;;;;;108174;1269;175170;-31
2023/07/28 02:54:43;;;;;;;4.70;3.20;;;;;;;;;;108313;1257;39148;-31
2023/07/28 02:57:17;;;;;;;5.20;3.20;;;;;;;;;;108332;1257;42710;-31
2023/07/28 02:59:51;;;;;;;4.90;3.20;;;;;;;;;;108189;1260;42830;-31
2023/07/28 03:02:25;;;;;;;4.90;3.00;;;;;;;;;;108257;1261;42871;-31
2023/07/28 03:04:59;;;;;;;4.60;3.20;;;;;;;;;;108235;1270;39226;-31
2023/07/28 03:07:35;;;;;;;5.10;3.10;;;;;;;;;;108229;1265;40468;-31
2023/07/28 03:10:16;;;;;;;5.10;3.00;;;;;;;;;;108227;1257;43626;-31
2023/07/28 03:12:50;;;;;;;5.10;3.10;;;;;;;;;;108301;1258;42495;-31
2023/07/28 03:15:25;;;;;;;4.60;3.40;;;;;;;;;;108294;1270;40367;-31
2023/07/28 03:17:59;;;;;;;4.90;3.20;;;;;;;;;;108304;1256;41909;-31
2023/07/28 03:20:36;;;;;;;4.90;3.10;;;;;;;;;;108228;1256;42920;-31
2023/07/28 03:23:09;;;;;;;4.60;3.30;;;;;;;;;;108256;1260;41701;-31
2023/07/28 03:25:44;;;;;;;4.90;3.10;;;;;;;;;;108218;1258;39085;-31
2023/07/28 03:28:18;;;;;;;4.90;3.30;;;;;;;;;;108217;1269;41786;-31
2023/07/28 03:30:52;;;;;;;5.30;3.40;;;;;;;;;;108251;1263;42531;-31
2023/07/28 03:33:26;;;;;;;4.70;3.20;;;;;;;;;;108330;1272;42771;-31
2023/07/28 03:36:00;;;;;;;5.10;3.20;;;;;;;;;;108151;1269;175146;-31
2023/07/28 03:38:34;;;;;;;4.30;3.00;;;;;;;;;;108324;1268;40802;-31
2023/07/28 03:41:08;;;;;;;5.10;3.20;;;;;;;;;;108170;1256;49681;-31
2023/07/28 03:43:43;;;;;;;5.50;3.10;;;;;;;;;;108228;1271;41461;-31
2023/07/28 03:46:17;;;;;;;4.70;3.20;;;;;;;;;;108242;1270;39052;-31
2023/07/28 03:48:51;;;;;;;4.70;3.10;;;;;;;;;;108270;1260;40400;-31
2023/07/28 03:51:25;;;;;;;5.00;3.40;;;;;;;;;;108272;1260;48944;-31
2023/07/28 03:53:59;;;;;;;4.60;3.00;;;;;;;;;;108309;1269;41547;-31
2023/07/28 03:56:33;;;;;;;4.80;3.30;;;;;;;;;;108273;1260;39084;-31
2023/07/28 03:59:07;;;;;;;5.10;3.30;;;;;;;;;;108277;1257;40741;-31
2023/07/28 04:01:41;;;;;;;5.00;3.40;;;;;;;;;;108217;1262;48317;-31
2023/07/28 04:04:16;;;;;;;4.80;3.60;;;;;;;;;;108265;1260;41626;-31
2023/07/28 04:06:53;;;;;;;4.70;3.60;;;;;;;;;;108301;1257;39218;-31
2023/07/28 04:09:27;;;;;;;5.50;3.80;;;;;;;;;;108291;1268;41016;-31
2023/07/28 04:12:02;;;;;;;5.00;3.30;;;;;;;;;;108180;1262;47911;-31
2023/07/28 04:14:36;;;;;;;4.90;3.30;;;;;;;;;;108261;1268;41657;-31
2023/07/28 04:17:12;;;;;;;4.90;3.30;;;;;;;;;;108220;1258;41556;-31
2023/07/28 04:19:47;;;;;;;4.70;3.40;;;;;;;;;;108250;1261;40812;-31
2023/07/28 04:22:22;;;;;;;5.40;3.40;;;;;;;;;;108100;1257;175537;-31
2023/07/28 04:24:56;;;;;;;5.40;3.50;;;;;;;;;;108278;1257;41757;-31
2023/07/28 04:27:31;;;;;;;4.90;3.30;;;;;;;;;;108268;1266;39067;-31
2023/07/28 04:30:07;;;;;;;5.50;3.60;;;;;;;;;;108279;1269;40402;-31
2023/07/28 04:32:41;;;;;;;5.30;3.50;;;;;;;;;;108268;1261;47942;-31
2023/07/28 04:35:15;;;;;;;4.90;3.30;;;;;;;;;;108107;1262;43757;-31
2023/07/28 04:37:52;;;;;;;4.80;3.50;;;;;;;;;;108140;1268;39130;-31
2023/07/28 04:40:27;;;;;;;4.90;3.50;;;;;;;;;;108115;1261;40428;-31
2023/07/28 04:43:01;;;;;;;5.40;3.30;;;;;;;;;;108294;1256;49365;-31
2023/07/28 04:45:36;;;;;;;4.90;3.30;;;;;;;;;;108300;1264;42945;-31
2023/07/28 04:48:10;;;;;;;5.40;3.50;;;;;;;;;;108266;1257;40327;-31
2023/07/28 04:50:45;;;;;;;4.70;3.50;;;;;;;;;;108303;1264;40389;-31
2023/07/28 04:53:19;;;;;;;4.80;3.40;;;;;;;;;;108188;1260;48336;-31
2023/07/28 04:55:53;;;;;;;4.90;3.40;;;;;;;;;;108147;1272;194747;-31
2023/07/28 04:58:28;;;;;;;5.20;3.60;;;;;;;;;;108229;1260;39107;-31
2023/07/28 05:01:02;;;;;;;5.30;3.40;;;;;;;;;;108274;1272;40271;-31
2023/07/28 05:03:36;;;;;;;4.80;3.10;;;;;;;;;;108238;1271;49347;-31
2023/07/28 05:06:14;;;;;;;5.10;3.70;;;;;;;;;;108271;1264;41559;-31
2023/07/28 05:08:48;;;;;;;5.30;3.40;;;;;;;;;;108257;1268;39336;-31
2023/07/28 05:11:22;;;;;;;5.50;3.50;;;;;;;;;;108287;1260;40643;-31
2023/07/28 05:13:56;;;;;;;5.20;3.50;;;;;;;;;;108186;1271;48009;-31
2023/07/28 05:16:30;;;;;;;4.70;3.40;;;;;;;;;;108254;1256;42818;-31
2023/07/28 05:19:04;;;;;;;5.20;3.30;;;;;;;;;;108259;1261;39233;-31
2023/07/28 05:21:38;;;;;;;5.20;3.30;;;;;;;;;;108218;1268;40409;-31
2023/07/28 05:24:12;;;;;;;5.00;3.50;;;;;;;;;;108245;1261;48522;-31
2023/07/28 05:26:47;;;;;;;4.90;3.40;;;;;;;;;;108304;1256;41477;-31
2023/07/28 05:29:21;;;;;;;5.60;3.60;;;;;;;;;;108307;1269;39466;-31
2023/07/28 05:31:56;;;;;;;5.10;3.40;;;;;;;;;;108303;1257;40569;-31
2023/07/28 05:34:30;;;;;;;5.10;3.30;;;;;;;;;;108238;1259;48080;-31
2023/07/28 05:37:05;;;;;;;5.20;3.50;;;;;;;;;;108245;1272;41207;-31
2023/07/28 05:39:39;;;;;;;5.40;3.60;;;;;;;;;;108238;1268;39263;-31
2023/07/28 05:42:13;;;;;;;5.50;3.60;;;;;;;;;;108275;1259;40761;-31
2023/07/28 05:44:48;;;;;;;5.60;3.50;;;;;;;;;;108235;1257;49256;-31
2023/07/28 05:47:22;;;;;;;4.80;3.30;;;;;;;;;;108320;1257;41437;-31
2023/07/28 05:49:57;;;;;;;4.90;3.40;;;;;;;;;;108299;1257;39233;-31
2023/07/28 05:52:30;;;;;;;5.00;3.40;;;;;;;;;;108270;1264;40477;-31
2023/07/28 05:55:05;;;;;;;5.10;3.40;;;;;;;;;;108226;1260;50247;-31
2023/07/28 05:57:42;;;;;;;5.10;3.40;;;;;;;;;;108265;1268;42527;-31
2023/07/28 06:00:18;;;;;;;6.70;3.80;;;;;;;;;;108269;1260;39003;-31
2023/07/28 06:02:54;;;;;;;6.10;3.70;;;;;;;;;;108236;1258;40416;-35
2023/07/28 06:05:29;;;;;;;6.00;3.50;;;;;;;;;;108383;1259;48889;-35
2023/07/28 06:08:05;;;;;;;7.20;3.70;;;;;;;;;;108329;1269;41610;-35
2023/07/28 06:10:42;;;;;;;6.30;3.50;;;;;;;;;;108360;1257;39077;-36
2023/07/28 06:13:15;;;;;;;6.60;3.80;;;;;;;;;;108345;1268;40439;-35
2023/07/28 06:15:49;;;;;;;6.50;3.60;;;;;;;;;;108335;1269;48514;-35
2023/07/28 06:18:23;;;;;;;6.10;3.40;;;;;;;;;;108374;1257;42948;-36
2023/07/28 06:20:56;;;;;;;7.20;3.70;;;;;;;;;;108369;1257;40390;-35
2023/07/28 06:23:30;;;;;;;6.30;3.60;;;;;;;;;;108337;1271;40127;-36
2023/07/28 06:26:05;;;;;;;6.60;3.70;;;;;;;;;;108288;1264;48893;-36
2023/07/28 06:28:39;;;;;;;8.30;3.60;;;;;;;;;;108298;1260;41598;-36
2023/07/28 06:31:13;;;;;;;6.30;3.70;;;;;;;;;;108273;1261;38947;-35
2023/07/28 06:33:49;;;;;;;6.20;3.30;;;;;;;;;;108232;1269;42817;-36
2023/07/28 06:36:23;;;;;;;5.30;3.30;;;;;;;;;;108377;1260;48409;-36
2023/07/28 06:38:57;;;;;;;6.50;3.50;;;;;;;;;;108338;1257;41413;-34
2023/07/28 06:41:30;;;;;;;6.20;3.50;;;;;;;;;;108370;1257;38975;-36
2023/07/28 06:44:04;;;;;;;5.70;3.50;;;;;;;;;;108334;1268;40762;-36
2023/07/28 06:46:37;;;;;;;7.30;3.60;;;;;;;;;;108288;1260;47496;-36
2023/07/28 06:49:11;;;;;;;5.30;3.30;;;;;;;;;;108242;1273;41145;-35
2023/07/28 06:51:45;;;;;;;5.70;3.50;;;;;;;;;;108276;1261;38864;-35
2023/07/28 06:54:18;;;;;;;7.70;3.90;;;;;;;;;;108260;1264;40213;-35
2023/07/28 06:56:52;;;;;;;7.20;3.40;;;;;;;;;;108358;1257;50566;-35
2023/07/28 06:59:26;;;;;;;6.80;3.50;;;;;;;;;;108346;1272;41291;-35
2023/07/28 07:01:59;;;;;;;5.20;3.50;;;;;;;;;;108363;1256;39929;-35
2023/07/28 07:04:33;;;;;;;6.30;3.70;;;;;;;;;;108328;1269;40510;-35
2023/07/28 07:07:08;;;;;;;5.60;3.40;;;;;;;;;;108045;1269;175508;-35
2023/07/28 07:09:42;;;;;;;6.40;3.60;;;;;;;;;;108258;1267;41490;-35
2023/07/28 07:12:15;;;;;;;6.50;3.70;;;;;;;;;;108310;1272;38850;-35
2023/07/28 07:14:49;;;;;;;6.00;3.50;;;;;;;;;;108264;1269;41545;-35
2023/07/28 07:17:22;;;;;;;5.40;3.40;;;;;;;;;;108340;1269;49808;-35
2023/07/28 07:19:56;;;;;;;6.50;3.40;;;;;;;;;;108323;1258;41279;-36
2023/07/28 07:22:32;;;;;;;6.30;3.40;;;;;;;;;;108357;1263;39185;-35
2023/07/28 07:25:07;;;;;;;5.80;3.40;;;;;;;;;;108249;1258;40405;-36
